Archival Weather

Yacuiba

Yacuiba, Bolivia (SLYA)

Report from: Thursday, December 7, 2023 11:00 AM -04
Current time: Tuesday, April 23, 2024 2:53 AM -04

Current weather – Weather history – Daily summaries
Weather forecast

Temperature25.0°C (77.0°F)
Dew point22.0°C (71.6°F)
Winds 5 kts (2.6 m/s, 5.8 mph) Southwest (220°)
Visibility6.2 mi. (10 km)
Clouds Scattered clouds 1,800 ft. (549 m)
Ceiling: Overcast 7,000 ft. (2,134 m)
Altimeter29.97 in.Hg (1015 mB)
Relative humidity83 %
Density altitude1,455 ft. (443 m)
Flight conditions Visual Meteorological Conditions
Raw dataSLYA 071500Z 22005KT 9999 SCT018 OVC070 25/22 Q1015
An error has occurred. This application may no longer respond until reloaded. Reload 🗙